sensor_id;sensor_type;location;lat;lon;timestamp;temperature;humidity
36132;DHT22;22185;48.738;9.324;2022-11-14T00:01:14;2.80;99.90
36132;DHT22;22185;48.738;9.324;2022-11-14T00:03:16;2.70;99.90
36132;DHT22;22185;48.738;9.324;2022-11-14T00:05:18;2.70;99.90
36132;DHT22;22185;48.738;9.324;2022-11-14T00:07:20;2.80;99.90
36132;DHT22;22185;48.738;9.324;2022-11-14T00:09:25;2.80;99.90
36132;DHT22;22185;48.738;9.324;2022-11-14T00:11:27;2.90;99.90
36132;DHT22;22185;48.738;9.324;2022-11-14T00:13:28;2.90;99.90
36132;DHT22;22185;48.738;9.324;2022-11-14T00:15:30;2.90;99.90
36132;DHT22;22185;48.738;9.324;2022-11-14T00:17:32;2.80;99.90
36132;DHT22;22185;48.738;9.324;2022-11-14T00:19:33;2.70;99.90
36132;DHT22;22185;48.738;9.324;2022-11-14T00:21:35;2.70;99.90
36132;DHT22;22185;48.738;9.324;2022-11-14T00:23:36;2.60;99.90
36132;DHT22;22185;48.738;9.324;2022-11-14T00:25:42;2.60;99.90
36132;DHT22;22185;48.738;9.324;2022-11-14T00:27:43;2.60;99.90
36132;DHT22;22185;48.738;9.324;2022-11-14T00:29:45;2.70;99.90
36132;DHT22;22185;48.738;9.324;2022-11-14T00:31:47;2.70;99.90
36132;DHT22;22185;48.738;9.324;2022-11-14T00:33:48;2.70;99.90
36132;DHT22;22185;48.738;9.324;2022-11-14T00:35:51;2.60;99.90
36132;DHT22;22185;48.738;9.324;2022-11-14T00:37:53;2.70;99.90
36132;DHT22;22185;48.738;9.324;2022-11-14T00:39:55;2.60;99.90
36132;DHT22;22185;48.738;9.324;2022-11-14T00:41:56;2.50;99.90
36132;DHT22;22185;48.738;9.324;2022-11-14T00:43:58;2.50;99.90
36132;DHT22;22185;48.738;9.324;2022-11-14T00:46:00;2.70;99.90
36132;DHT22;22185;48.738;9.324;2022-11-14T00:48:01;2.70;99.90
36132;DHT22;22185;48.738;9.324;2022-11-14T00:50:03;2.70;99.90
36132;DHT22;22185;48.738;9.324;2022-11-14T00:52:05;2.60;99.90
36132;DHT22;22185;48.738;9.324;2022-11-14T00:54:07;2.50;99.90
36132;DHT22;22185;48.738;9.324;2022-11-14T00:56:09;2.40;99.90
36132;DHT22;22185;48.738;9.324;2022-11-14T00:58:11;2.50;99.90
36132;DHT22;22185;48.738;9.324;2022-11-14T01:00:12;2.60;99.90
36132;DHT22;22185;48.738;9.324;2022-11-14T01:02:14;2.80;99.90
36132;DHT22;22185;48.738;9.324;2022-11-14T01:04:16;2.90;99.90
36132;DHT22;22185;48.738;9.324;2022-11-14T01:06:18;2.90;99.90
36132;DHT22;22185;48.738;9.324;2022-11-14T01:08:20;2.90;99.90
36132;DHT22;22185;48.738;9.324;2022-11-14T01:10:21;2.70;99.90
36132;DHT22;22185;48.738;9.324;2022-11-14T01:12:23;2.50;99.90
36132;DHT22;22185;48.738;9.324;2022-11-14T01:14:25;2.50;99.90
36132;DHT22;22185;48.738;9.324;2022-11-14T01:16:26;2.40;99.90
36132;DHT22;22185;48.738;9.324;2022-11-14T01:18:28;2.30;99.90
36132;DHT22;22185;48.738;9.324;2022-11-14T01:20:30;2.30;99.90
36132;DHT22;22185;48.738;9.324;2022-11-14T01:22:31;2.40;99.90
36132;DHT22;22185;48.738;9.324;2022-11-14T01:24:33;2.50;99.90
36132;DHT22;22185;48.738;9.324;2022-11-14T01:26:35;2.50;99.90
36132;DHT22;22185;48.738;9.324;2022-11-14T01:28:37;2.40;99.90
36132;DHT22;22185;48.738;9.324;2022-11-14T01:30:39;2.40;99.90
36132;DHT22;22185;48.738;9.324;2022-11-14T01:32:41;2.40;99.90
36132;DHT22;22185;48.738;9.324;2022-11-14T01:34:43;2.30;99.90
36132;DHT22;22185;48.738;9.324;2022-11-14T01:36:46;2.40;99.90
36132;DHT22;22185;48.738;9.324;2022-11-14T01:38:51;2.40;99.90
36132;DHT22;22185;48.738;9.324;2022-11-14T01:40:53;2.40;99.90
36132;DHT22;22185;48.738;9.324;2022-11-14T01:47:32;2.50;99.90
36132;DHT22;22185;48.738;9.324;2022-11-14T01:49:37;2.40;99.90
36132;DHT22;22185;48.738;9.324;2022-11-14T01:51:40;2.40;99.90
36132;DHT22;22185;48.738;9.324;2022-11-14T01:53:43;2.40;99.90
36132;DHT22;22185;48.738;9.324;2022-11-14T01:55:45;2.30;99.90
36132;DHT22;22185;48.738;9.324;2022-11-14T01:57:47;2.20;99.90
36132;DHT22;22185;48.738;9.324;2022-11-14T01:59:51;2.10;99.90
36132;DHT22;22185;48.738;9.324;2022-11-14T02:01:53;2.10;99.90
36132;DHT22;22185;48.738;9.324;2022-11-14T02:03:56;2.10;99.90
36132;DHT22;22185;48.738;9.324;2022-11-14T02:06:00;2.10;99.90
36132;DHT22;22185;48.738;9.324;2022-11-14T02:08:02;2.40;99.90
36132;DHT22;22185;48.738;9.324;2022-11-14T02:10:14;2.70;99.90
36132;DHT22;22185;48.738;9.324;2022-11-14T02:12:17;2.90;99.90
36132;DHT22;22185;48.738;9.324;2022-11-14T02:14:19;2.90;99.90
36132;DHT22;22185;48.738;9.324;2022-11-14T02:16:21;3.00;99.90
36132;DHT22;22185;48.738;9.324;2022-11-14T02:18:23;3.00;99.90
36132;DHT22;22185;48.738;9.324;2022-11-14T02:20:25;2.70;99.90
36132;DHT22;22185;48.738;9.324;2022-11-14T02:22:32;2.70;99.90
36132;DHT22;22185;48.738;9.324;2022-11-14T02:24:34;3.00;99.90
36132;DHT22;22185;48.738;9.324;2022-11-14T02:26:36;2.90;99.90
36132;DHT22;22185;48.738;9.324;2022-11-14T02:28:38;2.90;99.90
36132;DHT22;22185;48.738;9.324;2022-11-14T02:30:40;2.80;99.90
36132;DHT22;22185;48.738;9.324;2022-11-14T02:32:41;2.60;99.90
36132;DHT22;22185;48.738;9.324;2022-11-14T02:35:03;2.50;99.90
36132;DHT22;22185;48.738;9.324;2022-11-14T02:37:05;2.50;99.90
36132;DHT22;22185;48.738;9.324;2022-11-14T02:39:07;2.40;99.90
36132;DHT22;22185;48.738;9.324;2022-11-14T02:41:08;2.50;99.90
36132;DHT22;22185;48.738;9.324;2022-11-14T02:43:10;2.50;99.90
36132;DHT22;22185;48.738;9.324;2022-11-14T02:45:12;2.50;99.90
36132;DHT22;22185;48.738;9.324;2022-11-14T02:47:13;2.70;99.90
36132;DHT22;22185;48.738;9.324;2022-11-14T02:49:15;2.70;99.90
36132;DHT22;22185;48.738;9.324;2022-11-14T02:51:17;3.00;99.90
36132;DHT22;22185;48.738;9.324;2022-11-14T02:53:19;3.10;99.90
36132;DHT22;22185;48.738;9.324;2022-11-14T02:55:21;3.10;99.90
36132;DHT22;22185;48.738;9.324;2022-11-14T02:57:22;3.00;99.90
36132;DHT22;22185;48.738;9.324;2022-11-14T02:59:24;3.10;99.90
36132;DHT22;22185;48.738;9.324;2022-11-14T03:01:25;3.20;99.90
36132;DHT22;22185;48.738;9.324;2022-11-14T03:03:27;3.10;99.90
36132;DHT22;22185;48.738;9.324;2022-11-14T03:05:29;3.00;99.90
36132;DHT22;22185;48.738;9.324;2022-11-14T03:07:31;2.90;99.90
36132;DHT22;22185;48.738;9.324;2022-11-14T03:09:32;3.00;99.90
36132;DHT22;22185;48.738;9.324;2022-11-14T03:11:34;2.90;99.90
36132;DHT22;22185;48.738;9.324;2022-11-14T03:13:36;3.00;99.90
36132;DHT22;22185;48.738;9.324;2022-11-14T03:15:37;2.90;99.90
36132;DHT22;22185;48.738;9.324;2022-11-14T03:17:39;2.70;99.90
36132;DHT22;22185;48.738;9.324;2022-11-14T03:19:41;2.70;99.90
36132;DHT22;22185;48.738;9.324;2022-11-14T03:21:42;2.80;99.90
36132;DHT22;22185;48.738;9.324;2022-11-14T03:23:44;2.80;99.90
36132;DHT22;22185;48.738;9.324;2022-11-14T03:25:46;2.60;99.90
36132;DHT22;22185;48.738;9.324;2022-11-14T03:27:47;2.50;99.90
36132;DHT22;22185;48.738;9.324;2022-11-14T03:29:49;2.40;99.90
36132;DHT22;22185;48.738;9.324;2022-11-14T03:31:50;2.30;99.90
36132;DHT22;22185;48.738;9.324;2022-11-14T03:33:52;2.40;99.90
36132;DHT22;22185;48.738;9.324;2022-11-14T03:35:54;2.80;99.90
36132;DHT22;22185;48.738;9.324;2022-11-14T03:37:55;2.40;99.90
36132;DHT22;22185;48.738;9.324;2022-11-14T03:39:57;2.70;99.90
36132;DHT22;22185;48.738;9.324;2022-11-14T03:41:59;2.50;99.90
36132;DHT22;22185;48.738;9.324;2022-11-14T03:44:00;2.80;99.90
36132;DHT22;22185;48.738;9.324;2022-11-14T03:46:02;2.90;99.90
36132;DHT22;22185;48.738;9.324;2022-11-14T03:48:04;3.10;99.90
36132;DHT22;22185;48.738;9.324;2022-11-14T03:50:06;3.10;99.90
36132;DHT22;22185;48.738;9.324;2022-11-14T03:52:08;3.10;99.90
36132;DHT22;22185;48.738;9.324;2022-11-14T03:54:10;3.00;99.90
36132;DHT22;22185;48.738;9.324;2022-11-14T03:56:12;3.00;99.90
36132;DHT22;22185;48.738;9.324;2022-11-14T03:58:13;3.00;99.90
36132;DHT22;22185;48.738;9.324;2022-11-14T04:00:15;2.90;99.90
36132;DHT22;22185;48.738;9.324;2022-11-14T04:02:17;3.00;99.90
36132;DHT22;22185;48.738;9.324;2022-11-14T04:04:18;3.00;99.90
36132;DHT22;22185;48.738;9.324;2022-11-14T04:06:20;2.70;99.90
36132;DHT22;22185;48.738;9.324;2022-11-14T04:08:24;2.70;99.90
36132;DHT22;22185;48.738;9.324;2022-11-14T04:10:25;2.70;99.90
36132;DHT22;22185;48.738;9.324;2022-11-14T04:12:27;2.90;99.90
36132;DHT22;22185;48.738;9.324;2022-11-14T04:14:29;3.00;99.90
36132;DHT22;22185;48.738;9.324;2022-11-14T04:16:30;2.90;99.90
36132;DHT22;22185;48.738;9.324;2022-11-14T04:18:32;2.60;99.90
36132;DHT22;22185;48.738;9.324;2022-11-14T04:20:34;2.70;99.90
36132;DHT22;22185;48.738;9.324;2022-11-14T04:22:35;2.60;99.90
36132;DHT22;22185;48.738;9.324;2022-11-14T04:24:37;2.60;99.90
36132;DHT22;22185;48.738;9.324;2022-11-14T04:26:39;2.50;99.90
36132;DHT22;22185;48.738;9.324;2022-11-14T04:28:40;2.50;99.90
36132;DHT22;22185;48.738;9.324;2022-11-14T04:30:42;2.90;99.90
36132;DHT22;22185;48.738;9.324;2022-11-14T04:32:45;3.10;99.90
36132;DHT22;22185;48.738;9.324;2022-11-14T04:34:48;3.10;99.90
36132;DHT22;22185;48.738;9.324;2022-11-14T04:36:50;3.10;99.90
36132;DHT22;22185;48.738;9.324;2022-11-14T04:38:52;3.10;99.90
36132;DHT22;22185;48.738;9.324;2022-11-14T04:40:53;2.70;99.90
36132;DHT22;22185;48.738;9.324;2022-11-14T04:42:55;2.60;99.90
36132;DHT22;22185;48.738;9.324;2022-11-14T04:44:56;2.60;99.90
36132;DHT22;22185;48.738;9.324;2022-11-14T04:46:58;2.30;99.90
36132;DHT22;22185;48.738;9.324;2022-11-14T04:49:00;2.50;99.90
36132;DHT22;22185;48.738;9.324;2022-11-14T04:51:01;2.30;99.90
36132;DHT22;22185;48.738;9.324;2022-11-14T04:53:03;2.30;99.90
36132;DHT22;22185;48.738;9.324;2022-11-14T04:55:05;2.30;99.90
36132;DHT22;22185;48.738;9.324;2022-11-14T04:57:07;2.50;99.90
36132;DHT22;22185;48.738;9.324;2022-11-14T04:59:08;2.70;99.90
36132;DHT22;22185;48.738;9.324;2022-11-14T05:01:11;2.60;99.90
36132;DHT22;22185;48.738;9.324;2022-11-14T05:03:13;2.60;99.90
36132;DHT22;22185;48.738;9.324;2022-11-14T05:05:15;2.60;99.90
36132;DHT22;22185;48.738;9.324;2022-11-14T05:07:17;2.70;99.90
36132;DHT22;22185;48.738;9.324;2022-11-14T05:09:18;2.80;99.90
36132;DHT22;22185;48.738;9.324;2022-11-14T05:11:20;2.80;99.90
36132;DHT22;22185;48.738;9.324;2022-11-14T05:13:29;2.80;99.90
36132;DHT22;22185;48.738;9.324;2022-11-14T05:15:31;2.70;99.90
36132;DHT22;22185;48.738;9.324;2022-11-14T05:17:32;2.80;99.90
36132;DHT22;22185;48.738;9.324;2022-11-14T05:19:34;2.80;99.90
36132;DHT22;22185;48.738;9.324;2022-11-14T05:21:35;2.80;99.90
36132;DHT22;22185;48.738;9.324;2022-11-14T05:23:37;2.90;99.90
36132;DHT22;22185;48.738;9.324;2022-11-14T05:25:39;2.90;99.90
36132;DHT22;22185;48.738;9.324;2022-11-14T05:27:40;2.80;99.90
36132;DHT22;22185;48.738;9.324;2022-11-14T05:29:42;2.80;99.90
36132;DHT22;22185;48.738;9.324;2022-11-14T05:31:44;2.80;99.90
36132;DHT22;22185;48.738;9.324;2022-11-14T05:33:45;2.90;99.90
36132;DHT22;22185;48.738;9.324;2022-11-14T05:35:47;2.90;99.90
36132;DHT22;22185;48.738;9.324;2022-11-14T05:37:49;2.90;99.90
36132;DHT22;22185;48.738;9.324;2022-11-14T05:39:50;2.80;99.90
36132;DHT22;22185;48.738;9.324;2022-11-14T05:41:52;2.70;99.90
36132;DHT22;22185;48.738;9.324;2022-11-14T05:43:54;2.70;99.90
36132;DHT22;22185;48.738;9.324;2022-11-14T05:45:59;2.70;99.90
36132;DHT22;22185;48.738;9.324;2022-11-14T05:48:01;2.70;99.90
36132;DHT22;22185;48.738;9.324;2022-11-14T05:50:02;2.60;99.90
36132;DHT22;22185;48.738;9.324;2022-11-14T05:52:04;2.70;99.90
36132;DHT22;22185;48.738;9.324;2022-11-14T05:54:06;2.70;99.90
36132;DHT22;22185;48.738;9.324;2022-11-14T05:56:13;2.60;99.90
36132;DHT22;22185;48.738;9.324;2022-11-14T05:58:15;2.60;99.90
36132;DHT22;22185;48.738;9.324;2022-11-14T06:00:17;2.60;99.90
36132;DHT22;22185;48.738;9.324;2022-11-14T06:02:18;2.70;99.90
36132;DHT22;22185;48.738;9.324;2022-11-14T06:04:20;2.80;99.90
36132;DHT22;22185;48.738;9.324;2022-11-14T06:06:22;2.70;99.90
36132;DHT22;22185;48.738;9.324;2022-11-14T06:08:23;2.70;99.90
36132;DHT22;22185;48.738;9.324;2022-11-14T06:10:25;2.80;99.90
36132;DHT22;22185;48.738;9.324;2022-11-14T06:12:27;2.90;99.90
36132;DHT22;22185;48.738;9.324;2022-11-14T06:14:29;2.90;99.90
36132;DHT22;22185;48.738;9.324;2022-11-14T06:16:30;2.70;99.90
36132;DHT22;22185;48.738;9.324;2022-11-14T06:18:32;2.80;99.90
36132;DHT22;22185;48.738;9.324;2022-11-14T06:20:34;2.90;99.90
36132;DHT22;22185;48.738;9.324;2022-11-14T06:22:36;2.80;99.90
36132;DHT22;22185;48.738;9.324;2022-11-14T06:24:38;2.60;99.90
36132;DHT22;22185;48.738;9.324;2022-11-14T06:26:39;2.60;99.90
36132;DHT22;22185;48.738;9.324;2022-11-14T06:28:41;2.40;99.90
36132;DHT22;22185;48.738;9.324;2022-11-14T06:30:42;2.50;99.90
36132;DHT22;22185;48.738;9.324;2022-11-14T06:32:44;2.60;99.90
36132;DHT22;22185;48.738;9.324;2022-11-14T06:34:46;2.60;99.90
36132;DHT22;22185;48.738;9.324;2022-11-14T06:36:48;2.90;99.90
36132;DHT22;22185;48.738;9.324;2022-11-14T06:38:49;2.80;99.90
36132;DHT22;22185;48.738;9.324;2022-11-14T06:40:51;2.90;99.90
36132;DHT22;22185;48.738;9.324;2022-11-14T06:42:56;2.90;99.90
36132;DHT22;22185;48.738;9.324;2022-11-14T06:44:57;2.90;99.90
36132;DHT22;22185;48.738;9.324;2022-11-14T06:46:59;3.00;99.90
36132;DHT22;22185;48.738;9.324;2022-11-14T06:49:00;3.00;99.90
36132;DHT22;22185;48.738;9.324;2022-11-14T06:51:02;3.10;99.90
36132;DHT22;22185;48.738;9.324;2022-11-14T06:53:04;2.90;99.90
36132;DHT22;22185;48.738;9.324;2022-11-14T06:55:06;3.00;99.90
36132;DHT22;22185;48.738;9.324;2022-11-14T06:57:08;2.90;99.90
36132;DHT22;22185;48.738;9.324;2022-11-14T06:59:09;3.00;99.90
36132;DHT22;22185;48.738;9.324;2022-11-14T07:01:15;3.10;99.90
36132;DHT22;22185;48.738;9.324;2022-11-14T07:03:17;3.30;99.90
36132;DHT22;22185;48.738;9.324;2022-11-14T07:05:19;3.40;99.90
36132;DHT22;22185;48.738;9.324;2022-11-14T07:07:20;3.30;99.90
36132;DHT22;22185;48.738;9.324;2022-11-14T07:09:22;3.10;99.90
36132;DHT22;22185;48.738;9.324;2022-11-14T07:11:24;3.20;99.90
36132;DHT22;22185;48.738;9.324;2022-11-14T07:13:28;3.30;99.90
36132;DHT22;22185;48.738;9.324;2022-11-14T07:15:29;3.40;99.90
36132;DHT22;22185;48.738;9.324;2022-11-14T07:17:33;3.40;99.90
36132;DHT22;22185;48.738;9.324;2022-11-14T07:19:34;3.30;99.90
36132;DHT22;22185;48.738;9.324;2022-11-14T07:21:36;3.20;99.90
36132;DHT22;22185;48.738;9.324;2022-11-14T07:23:38;3.20;99.90
36132;DHT22;22185;48.738;9.324;2022-11-14T07:25:40;3.10;99.90
36132;DHT22;22185;48.738;9.324;2022-11-14T07:27:42;3.00;99.90
36132;DHT22;22185;48.738;9.324;2022-11-14T07:29:44;3.00;99.90
36132;DHT22;22185;48.738;9.324;2022-11-14T07:31:45;3.10;99.90
36132;DHT22;22185;48.738;9.324;2022-11-14T07:33:47;3.20;99.90
36132;DHT22;22185;48.738;9.324;2022-11-14T07:35:49;3.30;99.90
36132;DHT22;22185;48.738;9.324;2022-11-14T07:37:51;3.30;99.90
36132;DHT22;22185;48.738;9.324;2022-11-14T07:39:52;3.20;99.90
36132;DHT22;22185;48.738;9.324;2022-11-14T07:41:54;3.00;99.90
36132;DHT22;22185;48.738;9.324;2022-11-14T07:43:56;3.00;99.90
36132;DHT22;22185;48.738;9.324;2022-11-14T07:46:04;3.10;99.90
36132;DHT22;22185;48.738;9.324;2022-11-14T07:48:06;3.00;99.90
36132;DHT22;22185;48.738;9.324;2022-11-14T07:50:08;3.20;99.90
36132;DHT22;22185;48.738;9.324;2022-11-14T07:52:10;3.30;99.90
36132;DHT22;22185;48.738;9.324;2022-11-14T07:54:12;3.40;99.90
36132;DHT22;22185;48.738;9.324;2022-11-14T07:56:13;3.30;99.90
36132;DHT22;22185;48.738;9.324;2022-11-14T07:58:17;3.40;99.90
36132;DHT22;22185;48.738;9.324;2022-11-14T08:00:19;3.30;99.90
36132;DHT22;22185;48.738;9.324;2022-11-14T08:02:21;3.40;99.90
36132;DHT22;22185;48.738;9.324;2022-11-14T08:04:22;3.50;99.90
36132;DHT22;22185;48.738;9.324;2022-11-14T08:06:24;3.50;99.90
36132;DHT22;22185;48.738;9.324;2022-11-14T08:08:26;3.60;99.90
36132;DHT22;22185;48.738;9.324;2022-11-14T08:10:28;3.60;99.90
36132;DHT22;22185;48.738;9.324;2022-11-14T08:12:34;3.60;99.90
36132;DHT22;22185;48.738;9.324;2022-11-14T08:14:35;3.50;99.90
36132;DHT22;22185;48.738;9.324;2022-11-14T08:16:37;3.40;99.90
36132;DHT22;22185;48.738;9.324;2022-11-14T08:18:39;3.50;99.90
36132;DHT22;22185;48.738;9.324;2022-11-14T08:20:41;3.60;99.90
36132;DHT22;22185;48.738;9.324;2022-11-14T08:22:42;3.50;99.90
36132;DHT22;22185;48.738;9.324;2022-11-14T08:24:44;3.50;99.90
36132;DHT22;22185;48.738;9.324;2022-11-14T08:26:46;3.60;99.90
36132;DHT22;22185;48.738;9.324;2022-11-14T08:28:51;3.60;99.90
36132;DHT22;22185;48.738;9.324;2022-11-14T08:30:57;3.60;99.90
36132;DHT22;22185;48.738;9.324;2022-11-14T08:33:02;3.60;99.90
36132;DHT22;22185;48.738;9.324;2022-11-14T08:35:04;3.50;99.90
36132;DHT22;22185;48.738;9.324;2022-11-14T08:37:06;3.50;99.90
36132;DHT22;22185;48.738;9.324;2022-11-14T08:39:07;3.60;99.90
36132;DHT22;22185;48.738;9.324;2022-11-14T08:41:09;3.60;99.90
36132;DHT22;22185;48.738;9.324;2022-11-14T08:43:11;3.60;99.90
36132;DHT22;22185;48.738;9.324;2022-11-14T08:45:15;3.70;99.90
36132;DHT22;22185;48.738;9.324;2022-11-14T08:47:17;3.70;99.90
36132;DHT22;22185;48.738;9.324;2022-11-14T08:49:20;3.70;99.90
36132;DHT22;22185;48.738;9.324;2022-11-14T08:51:23;3.80;99.90
36132;DHT22;22185;48.738;9.324;2022-11-14T08:53:25;3.80;99.90
36132;DHT22;22185;48.738;9.324;2022-11-14T08:55:27;3.90;99.90
36132;DHT22;22185;48.738;9.324;2022-11-14T08:57:28;3.90;99.90
36132;DHT22;22185;48.738;9.324;2022-11-14T08:59:30;4.00;99.90
36132;DHT22;22185;48.738;9.324;2022-11-14T09:01:32;4.00;99.90
36132;DHT22;22185;48.738;9.324;2022-11-14T09:03:33;4.00;99.90
36132;DHT22;22185;48.738;9.324;2022-11-14T09:05:35;4.10;99.90
36132;DHT22;22185;48.738;9.324;2022-11-14T09:07:37;4.10;99.90
36132;DHT22;22185;48.738;9.324;2022-11-14T09:09:38;4.10;99.90
36132;DHT22;22185;48.738;9.324;2022-11-14T09:11:40;4.20;99.90
36132;DHT22;22185;48.738;9.324;2022-11-14T09:13:42;4.20;99.90
36132;DHT22;22185;48.738;9.324;2022-11-14T09:15:43;4.30;99.90
36132;DHT22;22185;48.738;9.324;2022-11-14T09:17:45;4.40;99.90
36132;DHT22;22185;48.738;9.324;2022-11-14T09:19:46;4.40;99.90
36132;DHT22;22185;48.738;9.324;2022-11-14T09:21:48;4.30;99.90
36132;DHT22;22185;48.738;9.324;2022-11-14T09:23:50;4.30;99.90
36132;DHT22;22185;48.738;9.324;2022-11-14T09:25:51;4.40;99.90
36132;DHT22;22185;48.738;9.324;2022-11-14T09:27:55;4.40;99.90
36132;DHT22;22185;48.738;9.324;2022-11-14T09:29:57;4.40;99.90
36132;DHT22;22185;48.738;9.324;2022-11-14T09:31:58;4.50;99.90
36132;DHT22;22185;48.738;9.324;2022-11-14T09:34:00;4.50;99.90
36132;DHT22;22185;48.738;9.324;2022-11-14T09:36:03;4.50;99.90
36132;DHT22;22185;48.738;9.324;2022-11-14T09:38:07;4.50;99.90
36132;DHT22;22185;48.738;9.324;2022-11-14T09:40:10;4.50;99.90
36132;DHT22;22185;48.738;9.324;2022-11-14T09:46:39;4.60;99.90
36132;DHT22;22185;48.738;9.324;2022-11-14T09:48:42;4.70;99.90
36132;DHT22;22185;48.738;9.324;2022-11-14T09:50:52;4.70;99.90
36132;DHT22;22185;48.738;9.324;2022-11-14T09:52:59;4.70;99.90
36132;DHT22;22185;48.738;9.324;2022-11-14T09:55:03;4.70;99.90
36132;DHT22;22185;48.738;9.324;2022-11-14T09:57:12;4.70;99.90
36132;DHT22;22185;48.738;9.324;2022-11-14T09:59:14;4.80;99.90
36132;DHT22;22185;48.738;9.324;2022-11-14T10:12:42;4.80;99.90
36132;DHT22;22185;48.738;9.324;2022-11-14T10:14:50;4.90;99.90
36132;DHT22;22185;48.738;9.324;2022-11-14T10:25:25;5.40;99.90
36132;DHT22;22185;48.738;9.324;2022-11-14T10:27:42;5.30;99.90
36132;DHT22;22185;48.738;9.324;2022-11-14T10:30:03;5.40;99.90
36132;DHT22;22185;48.738;9.324;2022-11-14T10:32:18;5.50;99.90
36132;DHT22;22185;48.738;9.324;2022-11-14T10:38:38;5.60;99.90
36132;DHT22;22185;48.738;9.324;2022-11-14T10:40:43;5.70;99.90
36132;DHT22;22185;48.738;9.324;2022-11-14T10:42:46;5.70;99.90
36132;DHT22;22185;48.738;9.324;2022-11-14T10:44:50;5.80;99.90
36132;DHT22;22185;48.738;9.324;2022-11-14T10:46:54;5.80;99.90
36132;DHT22;22185;48.738;9.324;2022-11-14T10:48:57;5.80;99.90
36132;DHT22;22185;48.738;9.324;2022-11-14T10:51:02;5.90;99.90
36132;DHT22;22185;48.738;9.324;2022-11-14T10:53:12;6.00;99.90
36132;DHT22;22185;48.738;9.324;2022-11-14T10:55:16;6.00;99.90
36132;DHT22;22185;48.738;9.324;2022-11-14T10:57:19;6.10;99.90
36132;DHT22;22185;48.738;9.324;2022-11-14T10:59:20;6.30;99.90
36132;DHT22;22185;48.738;9.324;2022-11-14T11:03:40;6.50;99.90
36132;DHT22;22185;48.738;9.324;2022-11-14T11:05:44;6.50;99.90
36132;DHT22;22185;48.738;9.324;2022-11-14T11:07:46;6.50;99.90
36132;DHT22;22185;48.738;9.324;2022-11-14T11:10:27;6.50;99.90
36132;DHT22;22185;48.738;9.324;2022-11-14T11:12:56;6.60;99.90
36132;DHT22;22185;48.738;9.324;2022-11-14T11:15:15;6.70;99.90
36132;DHT22;22185;48.738;9.324;2022-11-14T11:17:19;6.80;99.90
36132;DHT22;22185;48.738;9.324;2022-11-14T11:19:22;7.20;99.90
36132;DHT22;22185;48.738;9.324;2022-11-14T11:21:24;7.50;99.90
36132;DHT22;22185;48.738;9.324;2022-11-14T11:23:26;7.70;99.90
36132;DHT22;22185;48.738;9.324;2022-11-14T11:25:29;7.90;99.90
36132;DHT22;22185;48.738;9.324;2022-11-14T11:27:31;7.90;99.90
36132;DHT22;22185;48.738;9.324;2022-11-14T11:29:33;8.00;99.90
36132;DHT22;22185;48.738;9.324;2022-11-14T11:31:51;8.60;99.90
36132;DHT22;22185;48.738;9.324;2022-11-14T11:33:53;8.90;99.90
36132;DHT22;22185;48.738;9.324;2022-11-14T11:35:56;9.10;99.90
36132;DHT22;22185;48.738;9.324;2022-11-14T11:37:58;9.10;99.90
36132;DHT22;22185;48.738;9.324;2022-11-14T11:40:04;9.00;99.90
36132;DHT22;22185;48.738;9.324;2022-11-14T11:42:07;8.80;99.90
36132;DHT22;22185;48.738;9.324;2022-11-14T11:44:14;8.90;99.90
36132;DHT22;22185;48.738;9.324;2022-11-14T11:46:23;8.80;99.90
36132;DHT22;22185;48.738;9.324;2022-11-14T11:48:29;8.70;99.90
36132;DHT22;22185;48.738;9.324;2022-11-14T11:50:34;8.70;99.90
36132;DHT22;22185;48.738;9.324;2022-11-14T11:52:39;8.70;99.90
36132;DHT22;22185;48.738;9.324;2022-11-14T11:55:12;8.70;99.90
36132;DHT22;22185;48.738;9.324;2022-11-14T11:57:09;8.70;99.90
36132;DHT22;22185;48.738;9.324;2022-11-14T12:01:22;8.70;99.90
36132;DHT22;22185;48.738;9.324;2022-11-14T12:03:24;8.70;99.90
36132;DHT22;22185;48.738;9.324;2022-11-14T12:07:49;8.70;99.90
36132;DHT22;22185;48.738;9.324;2022-11-14T12:09:53;8.70;99.90
36132;DHT22;22185;48.738;9.324;2022-11-14T12:18:35;8.70;99.90
36132;DHT22;22185;48.738;9.324;2022-11-14T12:20:55;8.80;99.90
36132;DHT22;22185;48.738;9.324;2022-11-14T12:27:35;9.20;99.90
36132;DHT22;22185;48.738;9.324;2022-11-14T12:32:04;9.20;99.90
36132;DHT22;22185;48.738;9.324;2022-11-14T12:34:13;9.20;99.90
36132;DHT22;22185;48.738;9.324;2022-11-14T12:36:16;9.30;99.90
36132;DHT22;22185;48.738;9.324;2022-11-14T12:38:18;9.50;99.90
36132;DHT22;22185;48.738;9.324;2022-11-14T12:40:37;9.90;99.90
36132;DHT22;22185;48.738;9.324;2022-11-14T12:42:43;10.80;99.90
36132;DHT22;22185;48.738;9.324;2022-11-14T12:44:45;12.20;99.90
36132;DHT22;22185;48.738;9.324;2022-11-14T12:49:25;14.40;99.90
36132;DHT22;22185;48.738;9.324;2022-11-14T12:57:59;15.00;99.90
36132;DHT22;22185;48.738;9.324;2022-11-14T13:00:03;14.80;99.90
36132;DHT22;22185;48.738;9.324;2022-11-14T13:11:31;15.50;99.90
36132;DHT22;22185;48.738;9.324;2022-11-14T13:13:53;15.40;99.90
36132;DHT22;22185;48.738;9.324;2022-11-14T13:16:22;15.40;99.90
36132;DHT22;22185;48.738;9.324;2022-11-14T13:18:53;15.40;99.90
36132;DHT22;22185;48.738;9.324;2022-11-14T13:21:24;14.80;99.90
36132;DHT22;22185;48.738;9.324;2022-11-14T13:25:48;15.10;99.90
36132;DHT22;22185;48.738;9.324;2022-11-14T13:32:51;16.10;99.90
36132;DHT22;22185;48.738;9.324;2022-11-14T13:34:55;15.50;99.90
36132;DHT22;22185;48.738;9.324;2022-11-14T13:37:05;15.70;99.90
36132;DHT22;22185;48.738;9.324;2022-11-14T13:50:25;15.80;99.90
36132;DHT22;22185;48.738;9.324;2022-11-14T13:52:30;16.10;99.90
36132;DHT22;22185;48.738;9.324;2022-11-14T13:54:32;16.10;99.90
36132;DHT22;22185;48.738;9.324;2022-11-14T13:56:36;16.00;99.90
36132;DHT22;22185;48.738;9.324;2022-11-14T14:00:55;16.10;99.90
36132;DHT22;22185;48.738;9.324;2022-11-14T14:09:43;16.10;99.90
36132;DHT22;22185;48.738;9.324;2022-11-14T14:16:07;15.90;99.90
36132;DHT22;22185;48.738;9.324;2022-11-14T14:26:49;15.80;99.90
36132;DHT22;22185;48.738;9.324;2022-11-14T14:29:01;15.80;99.90
36132;DHT22;22185;48.738;9.324;2022-11-14T14:33:09;15.40;99.90
36132;DHT22;22185;48.738;9.324;2022-11-14T14:35:25;15.40;99.90
36132;DHT22;22185;48.738;9.324;2022-11-14T14:37:28;15.20;99.90
36132;DHT22;22185;48.738;9.324;2022-11-14T14:39:29;15.10;99.90
36132;DHT22;22185;48.738;9.324;2022-11-14T14:41:31;14.90;99.90
36132;DHT22;22185;48.738;9.324;2022-11-14T14:43:33;14.40;99.90
36132;DHT22;22185;48.738;9.324;2022-11-14T14:45:43;14.10;99.90
36132;DHT22;22185;48.738;9.324;2022-11-14T14:47:45;13.80;99.90
36132;DHT22;22185;48.738;9.324;2022-11-14T14:49:48;14.00;99.90
36132;DHT22;22185;48.738;9.324;2022-11-14T14:51:50;13.80;99.90
36132;DHT22;22185;48.738;9.324;2022-11-14T14:53:58;13.60;99.90
36132;DHT22;22185;48.738;9.324;2022-11-14T14:56:01;13.50;99.90
36132;DHT22;22185;48.738;9.324;2022-11-14T15:00:23;13.20;99.90
36132;DHT22;22185;48.738;9.324;2022-11-14T15:02:29;12.90;99.90
36132;DHT22;22185;48.738;9.324;2022-11-14T15:04:30;12.60;99.90
36132;DHT22;22185;48.738;9.324;2022-11-14T15:06:36;12.50;99.90
36132;DHT22;22185;48.738;9.324;2022-11-14T15:08:38;12.40;99.90